createdAt,value
2023-02-11T00:01:36.869Z,0.10
2023-02-11T00:04:06.446Z,0.10
2023-02-11T00:06:35.150Z,0.10
2023-02-11T00:09:03.393Z,0.10
2023-02-11T00:11:30.656Z,0.10
2023-02-11T00:14:00.267Z,0.10
2023-02-11T00:16:28.059Z,0.10
2023-02-11T00:18:55.556Z,0.10
2023-02-11T00:21:25.566Z,0.10
2023-02-11T00:23:52.718Z,0.10
2023-02-11T00:26:22.352Z,0.08
2023-02-11T00:28:50.828Z,0.20
2023-02-11T00:31:19.570Z,0.00
2023-02-11T00:33:48.370Z,0.10
2023-02-11T00:36:18.216Z,0.10
2023-02-11T00:38:48.165Z,0.10
2023-02-11T00:41:15.680Z,0.10
2023-02-11T00:43:42.712Z,0.10
2023-02-11T00:46:10.123Z,0.10
2023-02-11T00:48:36.890Z,0.10
2023-02-11T00:51:04.568Z,0.10
2023-02-11T00:53:32.488Z,0.03
2023-02-11T00:55:59.576Z,0.10
2023-02-11T00:58:26.492Z,0.10
2023-02-11T01:00:55.996Z,0.10
2023-02-11T01:03:24.495Z,0.10
2023-02-11T01:05:52.104Z,0.10
2023-02-11T01:08:19.379Z,0.10
2023-02-11T01:10:53.212Z,1.65
2023-02-11T01:13:19.939Z,0.10
2023-02-11T01:15:46.817Z,0.65
2023-02-11T01:18:13.603Z,0.10
2023-02-11T01:20:41.687Z,0.10
2023-02-11T01:23:08.438Z,0.10
2023-02-11T01:25:36.391Z,0.10
2023-02-11T01:28:04.146Z,0.15
2023-02-11T01:30:31.408Z,0.28
2023-02-11T01:32:58.267Z,0.57
2023-02-11T01:35:25.014Z,0.15
2023-02-11T01:37:51.770Z,0.00
2023-02-11T01:40:18.875Z,0.10
2023-02-11T01:42:47.887Z,0.47
2023-02-11T01:45:47.058Z,0.55
2023-02-11T01:48:29.450Z,0.52
2023-02-11T01:51:18.536Z,0.20
2023-02-11T01:54:06.424Z,0.10
2023-02-11T01:56:55.522Z,0.00
2023-02-11T01:59:48.405Z,0.10
2023-02-11T02:02:21.932Z,0.52
2023-02-11T02:04:55.409Z,0.47
2023-02-11T02:07:34.736Z,0.10
2023-02-11T02:10:08.236Z,0.10
2023-02-11T02:12:36.427Z,0.10
2023-02-11T02:15:46.257Z,0.63
2023-02-11T02:18:13.001Z,0.05
2023-02-11T02:20:56.539Z,0.10
2023-02-11T02:24:04.710Z,0.10
2023-02-11T02:26:53.427Z,0.08
2023-02-11T02:29:43.779Z,0.00
2023-02-11T02:32:32.411Z,0.10
2023-02-11T02:35:17.119Z,0.20
2023-02-11T02:38:08.037Z,0.10
2023-02-11T02:40:57.930Z,0.05
2023-02-11T02:43:27.650Z,0.10
2023-02-11T02:45:54.946Z,0.00
2023-02-11T02:48:35.867Z,0.10
2023-02-11T02:51:33.312Z,0.10
2023-02-11T02:54:15.044Z,0.10
2023-02-11T02:57:14.104Z,0.10
2023-02-11T03:00:02.908Z,0.00
2023-02-11T03:03:10.289Z,0.00
2023-02-11T03:05:55.810Z,0.10
2023-02-11T03:08:34.375Z,0.20
2023-02-11T03:11:03.416Z,0.10
2023-02-11T03:13:35.706Z,0.10
2023-02-11T03:16:27.599Z,0.28
2023-02-11T03:19:33.822Z,0.05
2023-02-11T03:22:05.460Z,0.10
2023-02-11T03:24:35.787Z,0.10
2023-02-11T03:27:24.498Z,1.08
2023-02-11T03:30:16.593Z,0.10
2023-02-11T03:33:01.140Z,0.10
2023-02-11T03:35:35.952Z,0.10
2023-02-11T03:38:26.392Z,0.25
2023-02-11T03:40:55.715Z,0.17
2023-02-11T03:43:28.934Z,0.10
2023-02-11T03:46:19.309Z,0.10
2023-02-11T03:48:52.424Z,0.10
2023-02-11T03:51:22.134Z,0.20
2023-02-11T03:53:52.956Z,0.10
2023-02-11T03:56:46.877Z,0.40
2023-02-11T03:59:13.767Z,0.10
2023-02-11T04:01:40.804Z,0.10
2023-02-11T04:07:29.556Z,0.10
2023-02-11T04:09:56.300Z,0.30
2023-02-11T04:12:23.201Z,0.00
2023-02-11T04:14:50.141Z,0.00
2023-02-11T04:17:17.008Z,0.10
2023-02-11T04:20:02.423Z,0.10
2023-02-11T04:22:30.321Z,0.10
2023-02-11T04:24:57.424Z,0.08
2023-02-11T04:27:24.406Z,0.00
2023-02-11T04:29:51.247Z,1.25
2023-02-11T04:32:18.040Z,0.10
2023-02-11T04:34:44.851Z,0.10
2023-02-11T04:37:11.820Z,0.20
2023-02-11T04:39:38.516Z,0.10
2023-02-11T04:42:05.587Z,0.13
2023-02-11T04:44:32.553Z,0.15
2023-02-11T04:46:59.440Z,0.00
2023-02-11T04:49:26.173Z,0.00
2023-02-11T04:51:52.939Z,0.20
2023-02-11T04:54:20.095Z,0.20
2023-02-11T04:56:46.906Z,0.20
2023-02-11T04:59:13.721Z,0.65
2023-02-11T05:01:40.856Z,0.10
2023-02-11T05:04:07.913Z,0.10
2023-02-11T05:06:34.844Z,0.10
2023-02-11T05:09:01.656Z,0.10
2023-02-11T05:11:28.470Z,0.45
2023-02-11T05:13:55.186Z,0.10
2023-02-11T05:16:22.115Z,0.10
2023-02-11T05:18:52.409Z,0.10
2023-02-11T05:21:19.802Z,0.10
2023-02-11T05:23:46.594Z,0.22
2023-02-11T05:26:14.463Z,0.00
2023-02-11T05:28:41.822Z,0.20
2023-02-11T05:33:53.565Z,0.20
2023-02-11T05:36:20.411Z,0.10
2023-02-11T05:38:47.384Z,0.00
2023-02-11T05:41:14.294Z,0.10
2023-02-11T05:43:41.100Z,0.10
2023-02-11T05:46:08.028Z,0.00
2023-02-11T05:48:34.891Z,0.10
2023-02-11T05:51:01.711Z,0.10
2023-02-11T05:53:28.615Z,0.10
2023-02-11T05:55:55.403Z,0.10
2023-02-11T05:58:22.200Z,0.10
2023-02-11T06:00:48.949Z,0.00
2023-02-11T06:03:15.790Z,1.17
2023-02-11T06:05:44.186Z,0.15
2023-02-11T06:08:11.036Z,2.53
2023-02-11T06:10:37.910Z,0.10
2023-02-11T06:13:04.842Z,0.20
2023-02-11T06:15:31.651Z,0.10
2023-02-11T06:17:58.391Z,0.75
2023-02-11T06:20:25.152Z,0.20
2023-02-11T06:22:51.921Z,0.13
2023-02-11T06:25:18.912Z,0.20
2023-02-11T06:27:45.668Z,0.10
2023-02-11T06:30:12.919Z,0.25
2023-02-11T06:32:44.314Z,0.15
2023-02-11T06:35:12.721Z,0.80
2023-02-11T06:37:40.601Z,0.10
2023-02-11T06:40:07.595Z,0.10
2023-02-11T06:42:36.186Z,0.10
2023-02-11T06:45:06.031Z,0.10
2023-02-11T06:47:32.910Z,0.00
2023-02-11T06:49:59.698Z,0.20
2023-02-11T06:52:45.107Z,0.68
2023-02-11T06:55:11.888Z,0.10
2023-02-11T06:57:38.625Z,0.35
2023-02-11T07:00:06.130Z,0.10
2023-02-11T07:02:33.000Z,0.55
2023-02-11T07:04:59.702Z,0.10
2023-02-11T07:07:27.864Z,0.80
2023-02-11T07:09:54.611Z,0.10
2023-02-11T07:12:21.341Z,0.20
2023-02-11T07:14:48.068Z,0.32
2023-02-11T07:17:52.513Z,0.20
2023-02-11T07:20:19.459Z,1.00
2023-02-11T07:22:46.219Z,0.20
2023-02-11T07:25:13.191Z,0.35
2023-02-11T07:27:39.956Z,0.73
2023-02-11T07:30:25.549Z,0.63
2023-02-11T07:32:52.727Z,0.10
2023-02-11T07:35:19.442Z,1.85
2023-02-11T07:37:46.237Z,0.22
2023-02-11T07:40:13.143Z,0.17
2023-02-11T07:42:41.645Z,0.40
2023-02-11T07:45:08.746Z,0.30
2023-02-11T07:47:35.843Z,1.15
2023-02-11T07:50:02.705Z,1.55
2023-02-11T07:52:30.861Z,3.03
2023-02-11T07:54:57.593Z,0.35
2023-02-11T07:57:24.292Z,1.60
2023-02-11T07:59:51.045Z,1.15
2023-02-11T08:02:17.897Z,1.40
2023-02-11T08:04:46.864Z,3.40
2023-02-11T08:07:18.100Z,1.63
2023-02-11T08:09:45.077Z,2.05
2023-02-11T08:12:11.811Z,0.38
2023-02-11T08:14:38.674Z,0.38
2023-02-11T08:17:05.426Z,2.15
2023-02-11T08:19:34.864Z,0.50
2023-02-11T08:22:02.037Z,1.52
2023-02-11T08:24:28.900Z,0.75
2023-02-11T08:26:55.718Z,2.40
2023-02-11T08:29:41.392Z,1.05
2023-02-11T08:32:08.242Z,1.35
2023-02-11T08:34:35.051Z,1.17
2023-02-11T08:37:01.835Z,0.83
2023-02-11T08:39:28.564Z,1.65
2023-02-11T08:41:56.864Z,0.70
2023-02-11T08:44:24.490Z,2.70
2023-02-11T08:46:51.727Z,1.92
2023-02-11T08:49:19.643Z,0.80
2023-02-11T08:51:46.948Z,0.75
2023-02-11T08:54:15.033Z,2.22
2023-02-11T08:56:42.308Z,0.65
2023-02-11T08:59:12.597Z,3.65
2023-02-11T09:01:39.561Z,0.75
2023-02-11T09:04:06.438Z,0.73
2023-02-11T09:06:33.294Z,0.30
2023-02-11T09:09:00.050Z,0.57
2023-02-11T09:11:33.309Z,2.47
2023-02-11T09:14:21.335Z,1.23
2023-02-11T09:16:48.887Z,0.30
2023-02-11T09:19:16.024Z,0.28
2023-02-11T09:22:01.948Z,1.10
2023-02-11T09:24:28.757Z,0.43
2023-02-11T09:26:55.482Z,0.65
2023-02-11T09:29:22.277Z,1.30
2023-02-11T09:31:49.878Z,2.47
2023-02-11T09:34:16.799Z,2.08
2023-02-11T09:36:43.500Z,0.45
2023-02-11T09:39:14.391Z,2.28
2023-02-11T09:42:27.396Z,0.43
2023-02-11T09:44:54.333Z,0.43
2023-02-11T09:47:38.743Z,0.40
2023-02-11T09:50:18.599Z,3.05
2023-02-11T09:52:57.304Z,0.60
2023-02-11T09:55:37.543Z,0.90
2023-02-11T09:58:08.143Z,0.30
2023-02-11T10:00:53.491Z,0.47
2023-02-11T10:03:26.880Z,0.35
2023-02-11T10:06:16.398Z,0.20
2023-02-11T10:09:04.402Z,0.43
2023-02-11T10:12:16.084Z,0.35
2023-02-11T10:14:54.977Z,0.70
2023-02-11T10:17:30.459Z,0.10
2023-02-11T10:20:02.934Z,0.47
2023-02-11T10:22:32.751Z,0.20
2023-02-11T10:25:00.950Z,0.20
2023-02-11T10:27:36.286Z,0.20
2023-02-11T10:30:10.095Z,0.82
2023-02-11T10:32:49.101Z,1.25
2023-02-11T10:35:21.478Z,2.38
2023-02-11T10:37:49.178Z,0.52
2023-02-11T10:40:28.099Z,0.38
2023-02-11T10:43:01.996Z,0.57
2023-02-11T10:45:52.817Z,0.30
2023-02-11T10:51:35.032Z,1.00
2023-02-11T10:54:04.645Z,0.60
2023-02-11T10:56:35.492Z,0.10
2023-02-11T10:59:07.529Z,0.55
2023-02-11T11:01:45.627Z,0.43
2023-02-11T11:04:30.720Z,2.20
2023-02-11T11:07:10.880Z,0.20
2023-02-11T11:09:48.452Z,0.38
2023-02-11T11:12:45.923Z,0.65
2023-02-11T11:15:28.041Z,0.20
2023-02-11T11:18:22.138Z,1.35
2023-02-11T11:21:01.369Z,0.20
2023-02-11T11:23:30.567Z,1.65
2023-02-11T11:26:12.328Z,0.95
2023-02-11T11:28:50.535Z,0.10
2023-02-11T11:31:34.072Z,0.20
2023-02-11T11:34:22.741Z,0.10
2023-02-11T11:36:50.520Z,1.92
2023-02-11T11:39:26.575Z,0.35
2023-02-11T11:41:58.084Z,0.10
2023-02-11T11:44:26.852Z,0.10
2023-02-11T11:47:13.931Z,1.02
2023-02-11T11:50:12.075Z,1.00
2023-02-11T11:52:50.797Z,0.45
2023-02-11T11:55:24.818Z,1.85
2023-02-11T11:57:51.842Z,0.25
2023-02-11T12:00:26.801Z,1.75
2023-02-11T12:03:17.444Z,0.63
2023-02-11T12:05:59.233Z,0.52
2023-02-11T12:08:47.017Z,0.10
2023-02-11T12:11:25.887Z,0.10
2023-02-11T12:13:58.884Z,1.70
2023-02-11T12:16:50.553Z,0.55
2023-02-11T12:19:54.948Z,1.58
2023-02-11T12:22:24.529Z,0.30
2023-02-11T12:24:54.325Z,1.92
2023-02-11T12:27:36.091Z,0.25
2023-02-11T12:30:17.789Z,1.90
2023-02-11T12:33:10.909Z,2.78
2023-02-11T12:35:52.952Z,0.70
2023-02-11T12:38:36.379Z,0.20
2023-02-11T12:42:09.288Z,0.73
2023-02-11T12:45:14.806Z,0.63
2023-02-11T12:48:09.093Z,1.02
2023-02-11T12:50:55.013Z,2.40
2023-02-11T12:53:44.725Z,1.33
2023-02-11T12:56:29.303Z,1.17
2023-02-11T12:58:59.031Z,2.28
2023-02-11T13:01:37.384Z,1.10
2023-02-11T13:04:26.946Z,0.20
2023-02-11T13:07:02.336Z,0.10
2023-02-11T13:09:36.082Z,0.15
2023-02-11T13:12:24.735Z,0.70
2023-02-11T13:14:56.964Z,0.55
2023-02-11T13:17:36.607Z,0.20
2023-02-11T13:20:38.829Z,0.50
2023-02-11T13:23:26.055Z,1.38
2023-02-11T13:26:22.052Z,1.00
2023-02-11T13:29:11.818Z,1.10
2023-02-11T13:31:38.826Z,1.63
2023-02-11T13:34:24.916Z,3.47
2023-02-11T13:36:56.173Z,0.75
2023-02-11T13:39:23.614Z,0.20
2023-02-11T13:41:52.873Z,0.10
2023-02-11T13:44:24.106Z,0.30
2023-02-11T13:46:59.330Z,1.25
2023-02-11T13:49:31.429Z,0.00
2023-02-11T13:52:00.597Z,0.50
2023-02-11T13:54:38.213Z,0.10
2023-02-11T13:57:38.536Z,0.55
2023-02-11T14:00:36.673Z,4.70
2023-02-11T14:03:30.908Z,0.10
2023-02-11T14:06:28.449Z,0.10
2023-02-11T14:09:11.458Z,0.32
2023-02-11T14:11:48.021Z,0.17
2023-02-11T14:14:27.864Z,0.32
2023-02-11T14:17:00.463Z,0.10
2023-02-11T14:19:47.746Z,0.20
2023-02-11T14:22:18.330Z,1.65
2023-02-11T14:24:54.234Z,0.20
2023-02-11T14:27:36.230Z,1.88
2023-02-11T14:30:09.290Z,0.20
2023-02-11T14:32:45.747Z,0.10
2023-02-11T14:35:19.123Z,0.30
2023-02-11T14:38:05.973Z,3.00
2023-02-11T14:41:08.072Z,1.52
2023-02-11T14:43:47.440Z,0.20
2023-02-11T14:46:18.914Z,0.03
2023-02-11T14:48:48.755Z,2.80
2023-02-11T14:51:41.771Z,0.22
2023-02-11T14:54:17.123Z,0.10
2023-02-11T14:57:02.336Z,0.10
2023-02-11T14:59:29.080Z,0.10
2023-02-11T15:01:55.944Z,0.30
2023-02-11T15:04:34.561Z,3.50
2023-02-11T15:07:06.975Z,0.15
2023-02-11T15:09:46.848Z,1.55
2023-02-11T15:12:23.684Z,0.30
2023-02-11T15:15:14.488Z,0.90
2023-02-11T15:17:42.623Z,1.48
2023-02-11T15:20:19.959Z,0.50
2023-02-11T15:22:48.124Z,1.35
2023-02-11T15:25:19.467Z,0.57
2023-02-11T15:27:50.949Z,1.95
2023-02-11T15:30:24.495Z,0.35
2023-02-11T15:32:53.764Z,3.03
2023-02-11T15:35:20.605Z,5.63
2023-02-11T15:37:50.193Z,0.68
2023-02-11T15:40:21.209Z,0.20
2023-02-11T15:43:05.059Z,1.83
2023-02-11T15:45:44.519Z,0.95
2023-02-11T15:48:14.596Z,0.82
2023-02-11T15:50:43.127Z,0.45
2023-02-11T15:53:30.414Z,0.17
2023-02-11T15:56:26.062Z,0.90
2023-02-11T15:59:15.513Z,0.40
2023-02-11T16:02:07.388Z,0.60
2023-02-11T16:04:34.539Z,1.75
2023-02-11T16:07:01.288Z,0.95
2023-02-11T16:09:36.413Z,0.80
2023-02-11T16:12:21.157Z,0.45
2023-02-11T16:14:48.061Z,0.20
2023-02-11T16:17:29.518Z,0.90
2023-02-11T16:19:56.656Z,0.63
2023-02-11T16:22:27.632Z,1.90
2023-02-11T16:24:59.465Z,1.20
2023-02-11T16:27:59.514Z,0.50
2023-02-11T16:30:40.954Z,0.30
2023-02-11T16:33:10.897Z,0.85
2023-02-11T16:35:38.367Z,0.40
2023-02-11T16:38:05.228Z,0.32
2023-02-11T16:40:32.040Z,2.17
2023-02-11T16:42:58.810Z,1.23
2023-02-11T16:45:26.793Z,2.70
2023-02-11T16:48:16.837Z,0.95
2023-02-11T16:50:46.851Z,0.65
2023-02-11T16:53:18.688Z,2.88
2023-02-11T16:55:45.469Z,3.50
2023-02-11T16:58:12.317Z,4.68
2023-02-11T17:00:39.367Z,4.82
2023-02-11T17:03:08.372Z,4.90
2023-02-11T17:05:58.215Z,6.95
2023-02-11T17:08:41.542Z,5.32
2023-02-11T17:11:08.415Z,1.98
2023-02-11T17:13:36.447Z,1.48
2023-02-11T17:16:05.677Z,7.95
2023-02-11T17:18:33.577Z,4.55
2023-02-11T17:21:01.356Z,7.10
2023-02-11T17:23:28.168Z,3.35
2023-02-11T17:25:56.136Z,2.70
2023-02-11T17:28:23.121Z,2.55
2023-02-11T17:30:49.918Z,1.85
2023-02-11T17:33:18.917Z,0.77
2023-02-11T17:35:46.153Z,1.08
2023-02-11T17:38:13.042Z,2.97
2023-02-11T17:40:39.807Z,2.17
2023-02-11T17:43:06.662Z,2.13
2023-02-11T17:45:33.890Z,3.13
2023-02-11T17:48:00.698Z,2.10
2023-02-11T17:50:29.349Z,5.28
2023-02-11T17:52:56.958Z,8.00
2023-02-11T17:55:23.686Z,7.10
2023-02-11T17:58:09.560Z,3.30
2023-02-11T18:00:36.551Z,3.95
2023-02-11T18:03:03.774Z,9.43
2023-02-11T18:05:35.700Z,23.17
2023-02-11T18:08:07.155Z,10.23
2023-02-11T18:10:34.410Z,4.30
2023-02-11T18:13:01.991Z,11.68
2023-02-11T18:15:28.905Z,9.27
2023-02-11T18:17:56.117Z,7.80
2023-02-11T18:20:22.919Z,5.18
2023-02-11T18:22:50.193Z,4.47
2023-02-11T18:25:17.512Z,4.65
2023-02-11T18:27:44.760Z,4.07
2023-02-11T18:33:14.621Z,5.90
2023-02-11T18:35:42.519Z,3.53
2023-02-11T18:38:09.890Z,2.63
2023-02-11T18:40:39.938Z,2.35
2023-02-11T18:43:07.367Z,3.88
2023-02-11T18:45:34.313Z,1.65
2023-02-11T18:48:03.656Z,2.08
2023-02-11T18:50:30.652Z,1.25
2023-02-11T18:52:57.439Z,2.15
2023-02-11T18:55:25.953Z,5.80
2023-02-11T18:58:11.853Z,4.22
2023-02-11T19:00:41.436Z,5.43
2023-02-11T19:03:08.325Z,3.15
2023-02-11T19:05:49.410Z,1.38
2023-02-11T19:08:17.203Z,11.40
2023-02-11T19:10:46.393Z,35.88
2023-02-11T19:13:14.870Z,8.15
2023-02-11T19:15:46.238Z,2.35
2023-02-11T19:18:14.636Z,3.50
2023-02-11T19:20:43.327Z,11.80
2023-02-11T19:23:11.123Z,11.35
2023-02-11T19:25:44.376Z,9.52
2023-02-11T19:28:11.309Z,6.13
2023-02-11T19:30:38.117Z,6.57
2023-02-11T19:33:05.116Z,4.95
2023-02-11T19:35:35.685Z,6.40
2023-02-11T19:38:04.084Z,4.93
2023-02-11T19:40:31.251Z,2.42
2023-02-11T19:42:58.196Z,3.50
2023-02-11T19:45:26.403Z,1.98
2023-02-11T19:47:56.999Z,2.95
2023-02-11T19:50:42.392Z,2.50
2023-02-11T19:53:09.190Z,6.22
2023-02-11T19:55:35.960Z,1.75
2023-02-11T19:58:02.739Z,2.90
2023-02-11T20:00:29.578Z,4.85
2023-02-11T20:02:56.435Z,5.28
2023-02-11T20:05:23.134Z,4.80
2023-02-11T20:07:49.884Z,2.05
2023-02-11T20:10:16.849Z,2.17
2023-02-11T20:12:43.619Z,5.38
2023-02-11T20:15:10.422Z,1.83
2023-02-11T20:17:37.243Z,2.55
2023-02-11T20:20:04.233Z,2.58
2023-02-11T20:22:30.974Z,1.52
2023-02-11T20:24:57.738Z,2.95
2023-02-11T20:27:24.834Z,3.70
2023-02-11T20:29:51.649Z,2.88
2023-02-11T20:32:18.674Z,2.25
2023-02-11T20:34:45.545Z,3.72
2023-02-11T20:37:12.680Z,4.15
2023-02-11T20:39:41.876Z,4.47
2023-02-11T20:42:12.248Z,5.63
2023-02-11T20:44:39.184Z,4.53
2023-02-11T20:47:06.153Z,5.75
2023-02-11T20:49:33.062Z,1.70
2023-02-11T20:51:59.815Z,5.68
2023-02-11T20:54:26.724Z,3.05
2023-02-11T20:56:54.331Z,3.60
2023-02-11T20:59:21.451Z,5.57
2023-02-11T21:01:50.878Z,4.78
2023-02-11T21:04:29.627Z,7.25
2023-02-11T21:06:59.543Z,5.53
2023-02-11T21:09:29.516Z,3.30
2023-02-11T21:11:56.577Z,3.78
2023-02-11T21:14:24.701Z,8.25
2023-02-11T21:16:52.534Z,5.88
2023-02-11T21:19:19.458Z,4.68
2023-02-11T21:21:47.024Z,3.60
2023-02-11T21:24:13.831Z,2.08
2023-02-11T21:26:40.668Z,5.47
2023-02-11T21:29:08.344Z,3.60
2023-02-11T21:31:36.468Z,5.90
2023-02-11T21:34:04.483Z,4.50
2023-02-11T21:36:31.414Z,7.72
2023-02-11T21:38:58.661Z,3.42
2023-02-11T21:41:27.146Z,5.15
2023-02-11T21:43:53.895Z,5.18
2023-02-11T21:46:21.140Z,6.43
2023-02-11T21:48:48.333Z,6.43
2023-02-11T21:51:21.449Z,6.20
2023-02-11T21:53:48.305Z,1.77
2023-02-11T21:56:17.280Z,1.45
2023-02-11T21:58:44.767Z,3.17
2023-02-11T22:01:17.156Z,5.30
2023-02-11T22:04:02.174Z,5.43
2023-02-11T22:06:31.952Z,3.35
2023-02-11T22:09:01.552Z,6.07
2023-02-11T22:11:28.372Z,4.90
2023-02-11T22:13:56.490Z,3.75
2023-02-11T22:16:24.537Z,3.70
2023-02-11T22:18:52.192Z,4.32
2023-02-11T22:21:22.130Z,5.28
2023-02-11T22:23:49.861Z,4.55
2023-02-11T22:26:19.501Z,4.18
2023-02-11T22:28:46.715Z,5.63
2023-02-11T22:31:20.724Z,5.65
2023-02-11T22:33:47.725Z,6.43
2023-02-11T22:36:26.552Z,5.55
2023-02-11T22:38:54.934Z,6.78
2023-02-11T22:41:41.173Z,5.35
2023-02-11T22:44:26.599Z,4.18
2023-02-11T22:46:53.894Z,3.80
2023-02-11T22:49:21.688Z,6.00
2023-02-11T22:51:48.895Z,4.95
2023-02-11T22:54:18.020Z,2.90
2023-02-11T22:57:05.131Z,3.38
2023-02-11T22:59:50.744Z,3.17
2023-02-11T23:02:17.758Z,5.65
2023-02-11T23:04:44.548Z,3.58
2023-02-11T23:07:11.505Z,3.30
2023-02-11T23:09:38.293Z,3.40
2023-02-11T23:12:05.393Z,1.25
2023-02-11T23:14:32.239Z,2.03
2023-02-11T23:16:59.123Z,6.55
2023-02-11T23:19:26.053Z,3.42
2023-02-11T23:21:53.247Z,4.70
2023-02-11T23:24:20.003Z,1.95
2023-02-11T23:27:05.469Z,3.25
2023-02-11T23:29:32.244Z,4.13
2023-02-11T23:31:59.157Z,2.38
2023-02-11T23:34:26.035Z,3.28
2023-02-11T23:36:53.183Z,3.20
2023-02-11T23:39:20.337Z,3.35
2023-02-11T23:41:47.075Z,4.35
2023-02-11T23:44:14.023Z,2.22
2023-02-11T23:46:40.780Z,1.63
2023-02-11T23:49:07.616Z,5.85
2023-02-11T23:51:34.347Z,4.38
2023-02-11T23:54:02.518Z,1.95
2023-02-11T23:56:29.372Z,2.95
2023-02-11T23:58:58.068Z,2.70
